createdAt,value
2023-03-11T00:00:53.684Z,0
2023-03-11T00:02:59.550Z,0
2023-03-11T00:04:02.386Z,0
2023-03-11T00:06:09.337Z,0
2023-03-11T00:08:16.967Z,0
2023-03-11T00:10:22.547Z,0
2023-03-11T00:11:26.010Z,0
2023-03-11T00:13:32.088Z,0
2023-03-11T00:15:37.155Z,0
2023-03-11T00:17:42.905Z,0
2023-03-11T00:18:45.346Z,0
2023-03-11T00:20:52.537Z,0
2023-03-11T00:22:59.307Z,0
2023-03-11T00:25:05.839Z,0
2023-03-11T00:26:09.400Z,0
2023-03-11T00:28:15.654Z,0
2023-03-11T00:30:21.500Z,0
2023-03-11T00:32:27.309Z,0
2023-03-11T00:33:30.719Z,0
2023-03-11T00:35:38.117Z,0
2023-03-11T00:37:44.965Z,0
2023-03-11T00:38:49.151Z,0
2023-03-11T00:39:52.615Z,0
2023-03-11T00:40:56.074Z,0
2023-03-11T00:43:02.228Z,0
2023-03-11T00:44:05.796Z,0
2023-03-11T00:45:08.686Z,0
2023-03-11T00:46:12.315Z,0
2023-03-11T00:48:18.476Z,0
2023-03-11T00:50:24.872Z,0
2023-03-11T00:51:28.326Z,0
2023-03-11T00:53:35.686Z,0
2023-03-11T00:55:42.738Z,0
2023-03-11T00:57:49.173Z,0
2023-03-11T00:58:52.307Z,0
2023-03-11T01:00:59.077Z,0
2023-03-11T01:03:05.448Z,0
2023-03-11T01:05:12.638Z,0
2023-03-11T01:06:16.212Z,0
2023-03-11T01:08:29.265Z,0
2023-03-11T01:09:34.948Z,0
2023-03-11T01:10:41.464Z,0
2023-03-11T01:12:51.563Z,0
2023-03-11T01:13:56.630Z,0
2023-03-11T01:16:06.158Z,0
2023-03-11T01:18:13.557Z,0
2023-03-11T01:20:19.670Z,0
2023-03-11T01:21:22.652Z,0
2023-03-11T01:22:25.395Z,0
2023-03-11T01:23:28.592Z,0
2023-03-11T01:25:35.647Z,0
2023-03-11T01:26:39.116Z,0
2023-03-11T01:27:42.093Z,0
2023-03-11T01:28:44.990Z,0
2023-03-11T01:30:51.805Z,0
2023-03-11T01:31:54.597Z,0
2023-03-11T01:32:57.606Z,0
2023-03-11T01:34:01.300Z,0
2023-03-11T01:36:07.023Z,0
2023-03-11T01:38:13.832Z,0
2023-03-11T01:39:16.842Z,0
2023-03-11T01:41:22.901Z,0
2023-03-11T01:43:29.715Z,0
2023-03-11T01:45:36.565Z,0
2023-03-11T01:46:40.150Z,0
2023-03-11T01:48:45.315Z,0
2023-03-11T01:50:51.286Z,0
2023-03-11T01:51:54.378Z,0
2023-03-11T01:52:57.368Z,0
2023-03-11T01:54:00.108Z,0
2023-03-11T01:56:06.283Z,0
2023-03-11T01:57:09.687Z,0
2023-03-11T01:58:13.194Z,0
2023-03-11T01:59:16.278Z,0
2023-03-11T02:01:22.085Z,0
2023-03-11T02:03:27.064Z,0
2023-03-11T02:04:29.903Z,0
2023-03-11T02:06:35.660Z,0
2023-03-11T02:08:42.131Z,0
2023-03-11T02:10:47.566Z,0
2023-03-11T02:11:50.907Z,0
2023-03-11T02:13:57.769Z,0
2023-03-11T02:16:04.643Z,0
2023-03-11T02:17:07.564Z,0
2023-03-11T02:18:10.563Z,0
2023-03-11T02:19:13.915Z,0
2023-03-11T02:21:20.394Z,0
2023-03-11T02:22:23.452Z,0
2023-03-11T02:23:26.957Z,0
2023-03-11T02:24:30.321Z,0
2023-03-11T02:26:37.509Z,0
2023-03-11T02:28:44.226Z,0
2023-03-11T02:29:47.964Z,0
2023-03-11T02:31:55.220Z,0
2023-03-11T02:34:00.904Z,0
2023-03-11T02:35:04.921Z,0
2023-03-11T02:36:08.733Z,0
2023-03-11T02:37:11.013Z,0
2023-03-11T02:39:16.657Z,0
2023-03-11T02:40:19.467Z,0
2023-03-11T02:41:22.262Z,0
2023-03-11T02:42:24.817Z,0
2023-03-11T02:44:30.925Z,0
2023-03-11T02:45:34.357Z,0
2023-03-11T02:47:40.042Z,0
2023-03-11T02:49:45.477Z,0
2023-03-11T02:51:51.442Z,0
2023-03-11T02:52:54.267Z,0
2023-03-11T02:54:59.705Z,0
2023-03-11T02:57:04.908Z,0
2023-03-11T02:59:11.525Z,0
2023-03-11T03:00:15.304Z,0
2023-03-11T03:02:22.283Z,0
2023-03-11T03:04:28.867Z,0
2023-03-11T03:06:35.752Z,0
2023-03-11T03:07:38.752Z,0
2023-03-11T03:09:44.557Z,0
2023-03-11T03:11:51.252Z,0
2023-03-11T03:13:57.464Z,0
2023-03-11T03:15:00.855Z,0
2023-03-11T03:17:10.078Z,0
2023-03-11T03:19:16.606Z,0
2023-03-11T03:21:22.179Z,0
2023-03-11T03:22:25.257Z,0
2023-03-11T03:24:30.297Z,0
2023-03-11T03:26:36.025Z,0
2023-03-11T03:28:42.739Z,0
2023-03-11T03:29:45.249Z,0
2023-03-11T03:31:52.176Z,0
2023-03-11T03:33:58.972Z,0
2023-03-11T03:36:05.694Z,0
2023-03-11T03:37:08.508Z,0
2023-03-11T03:39:15.005Z,0
2023-03-11T03:41:22.077Z,0
2023-03-11T03:43:27.328Z,0
2023-03-11T03:44:30.315Z,0
2023-03-11T03:46:35.873Z,0
2023-03-11T03:48:43.043Z,0
2023-03-11T03:50:50.155Z,0
2023-03-11T03:51:53.864Z,0
2023-03-11T03:53:59.749Z,0
2023-03-11T03:56:05.169Z,0
2023-03-11T03:58:11.322Z,0
2023-03-11T03:59:14.708Z,0
2023-03-11T04:00:18.012Z,0
2023-03-11T04:01:20.714Z,0
2023-03-11T04:03:28.098Z,0
2023-03-11T04:04:32.242Z,0
2023-03-11T04:05:35.703Z,0
2023-03-11T04:06:38.505Z,0
2023-03-11T04:08:46.015Z,0
2023-03-11T04:09:49.380Z,0
2023-03-11T04:10:53.102Z,0
2023-03-11T04:11:55.282Z,0
2023-03-11T04:14:01.432Z,0
2023-03-11T04:16:07.710Z,0
2023-03-11T04:17:11.290Z,0
2023-03-11T04:19:18.517Z,0
2023-03-11T04:21:25.342Z,0
2023-03-11T04:23:31.868Z,0
2023-03-11T04:24:34.593Z,0
2023-03-11T04:26:41.121Z,0
2023-03-11T04:28:48.020Z,0
2023-03-11T04:30:53.644Z,0
2023-03-11T04:31:57.434Z,0
2023-03-11T04:34:04.014Z,0
2023-03-11T04:36:11.333Z,0
2023-03-11T04:38:17.183Z,0
2023-03-11T04:39:20.294Z,0
2023-03-11T04:41:26.336Z,0
2023-03-11T04:43:32.331Z,0
2023-03-11T04:45:38.204Z,0
2023-03-11T04:46:41.108Z,0
2023-03-11T04:48:47.902Z,0
2023-03-11T04:50:54.779Z,0
2023-03-11T04:53:01.027Z,0
2023-03-11T04:54:04.428Z,0
2023-03-11T04:56:09.459Z,0
2023-03-11T04:58:16.004Z,0
2023-03-11T05:00:22.908Z,0
2023-03-11T05:01:26.636Z,0
2023-03-11T05:02:30.121Z,0
2023-03-11T05:03:33.566Z,0
2023-03-11T05:05:40.522Z,0
2023-03-11T05:06:44.281Z,0
2023-03-11T05:07:47.821Z,0
2023-03-11T05:08:51.152Z,0
2023-03-11T05:10:56.969Z,0
2023-03-11T05:12:00.326Z,0
2023-03-11T05:13:03.117Z,0
2023-03-11T05:14:06.409Z,0
2023-03-11T05:16:12.796Z,0
2023-03-11T05:18:20.069Z,0
2023-03-11T05:20:26.399Z,0
2023-03-11T05:21:29.518Z,0
2023-03-11T05:23:36.376Z,0
2023-03-11T05:25:42.045Z,0
2023-03-11T05:27:51.719Z,0
2023-03-11T05:28:54.150Z,0
2023-03-11T05:31:00.293Z,0
2023-03-11T05:33:06.695Z,1
2023-03-11T05:35:13.225Z,1
2023-03-11T05:36:16.224Z,1
2023-03-11T05:38:23.203Z,1
2023-03-11T05:40:29.254Z,1
2023-03-11T05:42:35.552Z,2
2023-03-11T05:43:38.926Z,2
2023-03-11T05:45:45.716Z,2
2023-03-11T05:47:53.500Z,3
2023-03-11T05:49:59.549Z,3
2023-03-11T05:51:02.393Z,3
2023-03-11T05:53:08.228Z,4
2023-03-11T05:55:15.505Z,3
2023-03-11T05:57:21.755Z,4
2023-03-11T05:58:25.448Z,4
2023-03-11T06:00:31.086Z,5
2023-03-11T06:02:37.392Z,7
2023-03-11T06:04:44.025Z,8
2023-03-11T06:05:47.537Z,9
2023-03-11T06:06:50.331Z,12
2023-03-11T06:07:53.418Z,13
2023-03-11T06:10:01.296Z,7
2023-03-11T06:11:05.010Z,5
2023-03-11T06:12:08.127Z,5
2023-03-11T06:13:11.214Z,4
2023-03-11T06:15:18.308Z,7
2023-03-11T06:16:21.718Z,8
2023-03-11T06:17:24.735Z,9
2023-03-11T06:18:28.115Z,11
2023-03-11T06:20:33.908Z,13
2023-03-11T06:21:37.573Z,14
2023-03-11T06:22:42.113Z,14
2023-03-11T06:23:45.553Z,14
2023-03-11T06:25:52.525Z,17
2023-03-11T06:27:58.906Z,19
2023-03-11T06:29:02.658Z,18
2023-03-11T06:31:09.242Z,16
2023-03-11T06:33:16.242Z,18
2023-03-11T06:35:23.011Z,16
2023-03-11T06:36:26.150Z,14
2023-03-11T06:38:31.811Z,17
2023-03-11T06:40:38.913Z,17
2023-03-11T06:42:45.539Z,19
2023-03-11T06:43:48.266Z,19
2023-03-11T06:45:54.882Z,20
2023-03-11T06:48:00.429Z,24
2023-03-11T06:50:06.217Z,28
2023-03-11T06:51:09.412Z,34
2023-03-11T06:53:15.579Z,49
2023-03-11T06:55:21.130Z,67
2023-03-11T06:57:28.380Z,74
2023-03-11T06:58:31.821Z,75
2023-03-11T07:00:38.010Z,39
2023-03-11T07:02:44.260Z,13
2023-03-11T07:03:47.689Z,14
2023-03-11T07:05:54.165Z,16
2023-03-11T07:08:00.605Z,14
2023-03-11T07:10:07.094Z,16
2023-03-11T07:11:10.806Z,17
2023-03-11T07:13:19.176Z,22
2023-03-11T07:15:27.418Z,27
2023-03-11T07:17:34.865Z,29
2023-03-11T07:18:37.796Z,31
2023-03-11T07:20:43.860Z,32
2023-03-11T07:22:50.315Z,34
2023-03-11T07:23:53.035Z,31
2023-03-11T07:24:56.036Z,36
2023-03-11T07:25:58.877Z,36
2023-03-11T07:28:06.051Z,27
2023-03-11T07:29:09.437Z,25
2023-03-11T07:30:13.197Z,25
2023-03-11T07:31:17.508Z,23
2023-03-11T07:33:23.300Z,25
2023-03-11T07:35:29.450Z,28
2023-03-11T07:36:32.272Z,29
2023-03-11T07:38:38.281Z,35
2023-03-11T07:40:45.087Z,38
2023-03-11T07:42:51.969Z,52
2023-03-11T07:43:55.186Z,67
2023-03-11T07:46:02.264Z,91
2023-03-11T07:48:08.831Z,115
2023-03-11T07:50:14.925Z,155
2023-03-11T07:51:17.958Z,192
2023-03-11T07:53:24.175Z,250
2023-03-11T07:55:29.634Z,169
2023-03-11T07:56:33.040Z,132
2023-03-11T07:57:35.750Z,144
2023-03-11T07:58:38.567Z,164
2023-03-11T08:00:45.417Z,212
2023-03-11T08:02:51.041Z,96
2023-03-11T08:03:55.098Z,112
2023-03-11T08:06:00.716Z,320
2023-03-11T08:08:06.685Z,236
2023-03-11T08:09:10.200Z,215
2023-03-11T08:10:12.916Z,210
2023-03-11T08:11:15.526Z,166
2023-03-11T08:13:22.379Z,218
2023-03-11T08:14:25.110Z,158
2023-03-11T08:15:28.433Z,295
2023-03-11T08:16:31.559Z,150
2023-03-11T08:18:39.217Z,146
2023-03-11T08:20:44.428Z,121
2023-03-11T08:21:47.794Z,107
2023-03-11T08:23:00.395Z,110
2023-03-11T08:24:07.561Z,156
2023-03-11T08:26:13.618Z,178
2023-03-11T08:28:19.846Z,187
2023-03-11T08:29:23.559Z,154
2023-03-11T08:30:26.890Z,272
2023-03-11T08:31:30.765Z,146
2023-03-11T08:33:39.151Z,101
2023-03-11T08:35:47.522Z,154
2023-03-11T08:36:51.615Z,167
2023-03-11T08:38:59.023Z,177
2023-03-11T08:41:05.252Z,619
2023-03-11T08:43:11.274Z,732
2023-03-11T08:44:14.765Z,588
2023-03-11T08:46:22.010Z,286
2023-03-11T08:48:29.705Z,769
2023-03-11T08:50:56.036Z,307
2023-03-11T08:53:02.453Z,291
2023-03-11T08:54:05.602Z,558
2023-03-11T08:56:12.042Z,363
2023-03-11T08:58:18.654Z,373
2023-03-11T09:00:24.662Z,353
2023-03-11T09:01:27.710Z,283
2023-03-11T09:03:34.857Z,751
2023-03-11T09:05:42.290Z,835
2023-03-11T09:07:47.203Z,735
2023-03-11T09:08:50.290Z,878
2023-03-11T09:09:53.671Z,910
2023-03-11T09:10:57.386Z,369
2023-03-11T09:13:04.176Z,360
2023-03-11T09:14:07.513Z,902
2023-03-11T09:15:10.893Z,866
2023-03-11T09:16:14.642Z,853
2023-03-11T09:18:21.809Z,300
2023-03-11T09:20:29.174Z,432
2023-03-11T09:21:32.534Z,230
2023-03-11T09:23:38.883Z,354
2023-03-11T09:25:44.758Z,255
2023-03-11T09:27:51.240Z,304
2023-03-11T09:28:53.656Z,312
2023-03-11T09:30:59.508Z,250
2023-03-11T09:33:06.130Z,183
2023-03-11T09:35:13.350Z,210
2023-03-11T09:36:17.462Z,218
2023-03-11T09:38:23.875Z,170
2023-03-11T09:40:30.467Z,192
2023-03-11T09:41:34.529Z,170
2023-03-11T09:42:39.943Z,168
2023-03-11T09:43:43.271Z,150
2023-03-11T09:44:47.126Z,128
2023-03-11T09:46:53.843Z,106
2023-03-11T09:48:59.931Z,131
2023-03-11T09:50:03.477Z,139
2023-03-11T09:52:11.242Z,110
2023-03-11T09:54:17.009Z,104
2023-03-11T09:55:19.711Z,97
2023-03-11T09:57:25.689Z,86
2023-03-11T09:58:28.496Z,95
2023-03-11T10:00:34.807Z,90
2023-03-11T10:02:42.536Z,123
2023-03-11T10:03:45.692Z,112
2023-03-11T10:04:49.360Z,123
2023-03-11T10:05:53.179Z,141
2023-03-11T10:08:00.120Z,118
2023-03-11T10:09:02.849Z,103
2023-03-11T10:11:08.151Z,234
2023-03-11T10:12:11.607Z,393
2023-03-11T10:14:18.576Z,297
2023-03-11T10:15:21.936Z,217
2023-03-11T10:17:28.345Z,405
2023-03-11T10:18:30.796Z,1013
2023-03-11T10:19:33.876Z,681
2023-03-11T10:20:36.935Z,886
2023-03-11T10:21:40.034Z,965
2023-03-11T10:22:44.072Z,1091
2023-03-11T10:23:47.660Z,1045
2023-03-11T10:24:51.028Z,980
2023-03-11T10:25:53.758Z,924
2023-03-11T10:26:56.333Z,977
2023-03-11T10:29:02.306Z,491
2023-03-11T10:30:05.368Z,926
2023-03-11T10:32:12.467Z,1061
2023-03-11T10:34:19.079Z,1118
2023-03-11T10:35:22.376Z,728
2023-03-11T10:37:51.751Z,600
2023-03-11T10:39:58.802Z,276
2023-03-11T10:42:04.866Z,242
2023-03-11T10:43:07.749Z,216
2023-03-11T10:45:14.312Z,1109
2023-03-11T10:47:21.018Z,1110
2023-03-11T10:48:24.701Z,1156
2023-03-11T10:50:30.512Z,1170
2023-03-11T10:52:36.410Z,1192
2023-03-11T10:53:38.942Z,1226
2023-03-11T10:55:46.112Z,1200
2023-03-11T10:57:51.645Z,478
2023-03-11T10:58:54.540Z,1309
2023-03-11T11:01:02.241Z,1177
2023-03-11T11:02:05.613Z,1291
2023-03-11T11:04:11.690Z,1375
2023-03-11T11:06:17.943Z,391
2023-03-11T11:07:20.937Z,673
2023-03-11T11:09:29.385Z,1250
2023-03-11T11:11:36.743Z,290
2023-03-11T11:12:39.174Z,1269
2023-03-11T11:14:45.954Z,1305
2023-03-11T11:16:51.894Z,906
2023-03-11T11:17:55.068Z,826
2023-03-11T11:20:01.535Z,1183
2023-03-11T11:22:08.726Z,1064
2023-03-11T11:24:14.854Z,1093
2023-03-11T11:25:18.554Z,1122
2023-03-11T11:27:25.690Z,1189
2023-03-11T11:29:32.037Z,1227
2023-03-11T11:30:35.585Z,1229
2023-03-11T11:32:43.229Z,1224
2023-03-11T11:34:48.617Z,1173
2023-03-11T11:35:52.642Z,1176
2023-03-11T11:37:58.910Z,658
2023-03-11T11:40:05.967Z,1041
2023-03-11T11:42:13.368Z,1192
2023-03-11T11:43:16.845Z,1172
2023-03-11T11:45:23.640Z,1156
2023-03-11T11:47:29.872Z,1170
2023-03-11T11:48:33.269Z,1154
2023-03-11T11:50:39.707Z,1157
2023-03-11T11:52:47.280Z,1126
2023-03-11T11:53:50.926Z,1115
2023-03-11T11:55:57.002Z,1126
2023-03-11T11:58:04.369Z,1135
2023-03-11T11:59:08.065Z,1120
2023-03-11T12:01:14.878Z,1108
2023-03-11T12:03:20.751Z,1114
2023-03-11T12:04:23.783Z,1105
2023-03-11T12:06:31.136Z,1105
2023-03-11T12:07:34.121Z,1116
2023-03-11T12:09:40.587Z,1121
2023-03-11T12:10:43.571Z,1113
2023-03-11T12:12:49.477Z,1096
2023-03-11T12:14:56.389Z,1061
2023-03-11T12:16:00.041Z,1037
2023-03-11T12:18:09.624Z,1023
2023-03-11T12:20:16.567Z,1079
2023-03-11T12:21:19.567Z,1053
2023-03-11T12:23:26.130Z,1111
2023-03-11T12:25:32.255Z,1100
2023-03-11T12:26:35.616Z,1100
2023-03-11T12:28:42.390Z,1095
2023-03-11T12:30:49.753Z,1076
2023-03-11T12:31:53.558Z,1073
2023-03-11T12:33:59.935Z,1043
2023-03-11T12:36:06.557Z,1055
2023-03-11T12:38:12.064Z,1043
2023-03-11T12:39:15.404Z,1061
2023-03-11T12:41:23.264Z,1060
2023-03-11T12:43:29.812Z,869
2023-03-11T12:44:33.252Z,989
2023-03-11T12:45:37.051Z,1029
2023-03-11T12:46:40.198Z,1028
2023-03-11T12:48:46.763Z,621
2023-03-11T12:49:49.858Z,683
2023-03-11T12:50:53.532Z,644
2023-03-11T12:51:56.863Z,620
2023-03-11T12:54:03.298Z,654
2023-03-11T12:55:06.666Z,492
2023-03-11T12:57:12.280Z,636
2023-03-11T12:58:15.671Z,698
2023-03-11T12:59:19.286Z,531
2023-03-11T13:00:23.273Z,498
2023-03-11T13:01:27.489Z,508
2023-03-11T13:03:33.662Z,450
2023-03-11T13:05:40.219Z,441
2023-03-11T13:06:43.856Z,458
2023-03-11T13:08:50.447Z,645
2023-03-11T13:10:56.354Z,255
2023-03-11T13:11:58.790Z,500
2023-03-11T13:14:04.359Z,601
2023-03-11T13:15:07.709Z,559
2023-03-11T13:17:14.994Z,436
2023-03-11T13:19:22.463Z,327
2023-03-11T13:20:28.422Z,330
2023-03-11T13:22:35.285Z,416
2023-03-11T13:24:41.738Z,521
2023-03-11T13:26:47.974Z,439
2023-03-11T13:27:51.614Z,453
2023-03-11T13:29:58.555Z,674
2023-03-11T13:31:01.589Z,602
2023-03-11T13:33:09.469Z,451
2023-03-11T13:34:13.144Z,347
2023-03-11T13:35:16.143Z,374
2023-03-11T13:36:18.694Z,663
2023-03-11T13:38:25.299Z,634
2023-03-11T13:39:28.028Z,659
2023-03-11T13:41:34.362Z,645
2023-03-11T13:42:38.073Z,655
2023-03-11T13:44:44.867Z,670
2023-03-11T13:46:51.189Z,604
2023-03-11T13:47:54.551Z,621
2023-03-11T13:50:01.342Z,647
2023-03-11T13:52:07.523Z,636
2023-03-11T13:53:10.305Z,676
2023-03-11T13:55:16.833Z,749
2023-03-11T13:57:22.404Z,186
2023-03-11T13:59:28.941Z,172
2023-03-11T14:00:32.348Z,300
2023-03-11T14:02:39.029Z,145
2023-03-11T14:04:46.011Z,179
2023-03-11T14:05:48.717Z,220
2023-03-11T14:07:54.889Z,175
2023-03-11T14:10:00.934Z,186
2023-03-11T14:11:04.557Z,379
2023-03-11T14:13:11.305Z,491
2023-03-11T14:15:17.818Z,278
2023-03-11T14:17:24.804Z,155
2023-03-11T14:18:27.877Z,162
2023-03-11T14:20:36.292Z,174
2023-03-11T14:22:42.314Z,175
2023-03-11T14:23:45.398Z,543
2023-03-11T14:25:51.826Z,248
2023-03-11T14:27:57.985Z,154
2023-03-11T14:30:04.583Z,172
2023-03-11T14:31:07.771Z,209
2023-03-11T14:33:14.583Z,278
2023-03-11T14:34:17.625Z,374
2023-03-11T14:35:21.535Z,390
2023-03-11T14:36:25.647Z,384
2023-03-11T14:37:29.657Z,225
2023-03-11T14:38:32.960Z,223
2023-03-11T14:39:36.325Z,360
2023-03-11T14:41:43.269Z,337
2023-03-11T14:42:46.720Z,373
2023-03-11T14:44:53.085Z,344
2023-03-11T14:47:00.464Z,271
2023-03-11T14:48:04.524Z,294
2023-03-11T14:50:10.958Z,117
2023-03-11T14:52:18.994Z,293
2023-03-11T14:53:22.468Z,275
2023-03-11T14:55:27.771Z,257
2023-03-11T14:57:33.546Z,143
2023-03-11T14:58:36.734Z,128
2023-03-11T15:00:42.909Z,106
2023-03-11T15:02:49.256Z,115
2023-03-11T15:03:52.937Z,95
2023-03-11T15:05:59.798Z,86
2023-03-11T15:08:08.590Z,85
2023-03-11T15:09:11.652Z,83
2023-03-11T15:11:17.766Z,87
2023-03-11T15:13:24.022Z,77
2023-03-11T15:15:31.161Z,77
2023-03-11T15:16:35.037Z,82
2023-03-11T15:17:46.187Z,75
2023-03-11T15:18:48.917Z,76
2023-03-11T15:20:54.059Z,77
2023-03-11T15:21:57.333Z,80
2023-03-11T15:24:06.369Z,71
2023-03-11T15:26:12.759Z,68
2023-03-11T15:28:18.906Z,66
2023-03-11T15:29:22.871Z,64
2023-03-11T15:31:28.396Z,64
2023-03-11T15:33:34.555Z,62
2023-03-11T15:35:40.760Z,62
2023-03-11T15:36:43.836Z,63
2023-03-11T15:38:51.334Z,61
2023-03-11T15:40:58.473Z,70
2023-03-11T15:42:01.874Z,73
2023-03-11T15:44:07.788Z,76
2023-03-11T15:45:10.302Z,78
2023-03-11T15:46:14.512Z,67
2023-03-11T15:47:17.283Z,58
2023-03-11T15:49:24.047Z,52
2023-03-11T15:50:56.195Z,50
2023-03-11T15:51:59.251Z,50
2023-03-11T15:53:02.986Z,49
2023-03-11T15:54:06.193Z,49
2023-03-11T15:55:10.264Z,48
2023-03-11T15:57:15.330Z,47
2023-03-11T15:59:20.975Z,45
2023-03-11T16:00:23.522Z,44
2023-03-11T16:02:29.515Z,44
2023-03-11T16:04:38.794Z,43
2023-03-11T16:06:44.862Z,40
2023-03-11T16:07:48.605Z,39
2023-03-11T16:09:55.068Z,37
2023-03-11T16:12:02.349Z,35
2023-03-11T16:14:08.040Z,35
2023-03-11T16:15:10.881Z,34
2023-03-11T16:17:18.916Z,32
2023-03-11T16:19:25.141Z,31
2023-03-11T16:20:28.485Z,30
2023-03-11T16:21:31.695Z,30
2023-03-11T16:22:34.412Z,29
2023-03-11T16:23:54.247Z,28
2023-03-11T16:24:58.165Z,27
2023-03-11T16:27:04.881Z,27
2023-03-11T16:28:07.878Z,28
2023-03-11T16:29:21.713Z,27
2023-03-11T16:30:24.443Z,27
2023-03-11T16:32:31.061Z,28
2023-03-11T16:34:37.398Z,25
2023-03-11T16:36:43.900Z,24
2023-03-11T16:37:47.650Z,23
2023-03-11T16:39:55.481Z,21
2023-03-11T16:42:02.870Z,18
2023-03-11T16:44:12.133Z,16
2023-03-11T16:45:15.141Z,15
2023-03-11T16:47:21.844Z,14
2023-03-11T16:49:28.181Z,13
2023-03-11T16:51:35.450Z,11
2023-03-11T16:52:39.185Z,11
2023-03-11T16:54:45.479Z,10
2023-03-11T16:56:51.744Z,9
2023-03-11T16:58:58.900Z,8
2023-03-11T17:00:02.172Z,7
2023-03-11T17:02:08.290Z,6
2023-03-11T17:04:15.163Z,5
2023-03-11T17:06:22.520Z,5
2023-03-11T17:07:25.581Z,4
2023-03-11T17:09:32.152Z,3
2023-03-11T17:11:38.523Z,3
2023-03-11T17:13:45.691Z,2
2023-03-11T17:14:49.059Z,1
2023-03-11T17:16:56.422Z,0
2023-03-11T17:19:02.947Z,0
2023-03-11T17:21:09.037Z,0
2023-03-11T17:22:12.049Z,0
2023-03-11T17:24:18.223Z,0
2023-03-11T17:26:24.796Z,0
2023-03-11T17:28:31.161Z,0
2023-03-11T17:29:35.540Z,0
2023-03-11T17:30:40.325Z,0
2023-03-11T17:31:44.044Z,0
2023-03-11T17:33:50.666Z,0
2023-03-11T17:34:54.399Z,0
2023-03-11T17:35:57.822Z,0
2023-03-11T17:37:01.073Z,0
2023-03-11T17:39:07.169Z,0
2023-03-11T17:41:12.108Z,0
2023-03-11T17:42:14.974Z,0
2023-03-11T17:43:18.339Z,0
2023-03-11T17:44:21.804Z,0
2023-03-11T17:46:28.955Z,0
2023-03-11T17:47:31.994Z,0
2023-03-11T17:48:35.071Z,0
2023-03-11T17:49:38.482Z,0
2023-03-11T17:51:44.666Z,0
2023-03-11T17:53:51.893Z,0
2023-03-11T17:54:55.277Z,0
2023-03-11T17:57:01.590Z,0
2023-03-11T17:59:07.682Z,0
2023-03-11T18:00:10.791Z,0
2023-03-11T18:01:15.082Z,0
2023-03-11T18:02:18.179Z,0
2023-03-11T18:04:24.405Z,0
2023-03-11T18:06:29.161Z,0
2023-03-11T18:07:32.572Z,0
2023-03-11T18:08:35.346Z,0
2023-03-11T18:09:38.720Z,0
2023-03-11T18:11:44.303Z,0
2023-03-11T18:12:48.358Z,0
2023-03-11T18:13:51.645Z,0
2023-03-11T18:14:55.285Z,0
2023-03-11T18:17:02.014Z,0
2023-03-11T18:19:08.263Z,0
2023-03-11T18:20:11.610Z,0
2023-03-11T18:22:18.186Z,0
2023-03-11T18:24:23.909Z,0
2023-03-11T18:26:29.800Z,0
2023-03-11T18:27:32.606Z,0
2023-03-11T18:29:39.906Z,0
2023-03-11T18:31:46.920Z,0
2023-03-11T18:33:53.294Z,0
2023-03-11T18:34:57.042Z,0
2023-03-11T18:37:03.917Z,0
2023-03-11T18:39:09.684Z,0
2023-03-11T18:41:15.536Z,0
2023-03-11T18:42:18.919Z,0
2023-03-11T18:44:25.414Z,0
2023-03-11T18:46:31.049Z,0
2023-03-11T18:48:39.062Z,0
2023-03-11T18:49:42.044Z,0
2023-03-11T18:51:48.284Z,0
2023-03-11T18:53:54.995Z,0
2023-03-11T18:56:01.964Z,0
2023-03-11T18:57:05.713Z,0
2023-03-11T18:59:12.400Z,0
2023-03-11T19:01:18.354Z,0
2023-03-11T19:03:24.734Z,0
2023-03-11T19:04:29.166Z,0
2023-03-11T19:06:35.935Z,0
2023-03-11T19:08:42.073Z,0
2023-03-11T19:10:47.576Z,0
2023-03-11T19:11:50.864Z,0
2023-03-11T19:12:54.572Z,0
2023-03-11T19:13:57.983Z,0
2023-03-11T19:16:05.163Z,0
2023-03-11T19:17:08.836Z,0
2023-03-11T19:18:11.897Z,0
2023-03-11T19:19:14.990Z,0
2023-03-11T19:21:21.821Z,0
2023-03-11T19:22:25.219Z,0
2023-03-11T19:23:27.970Z,0
2023-03-11T19:24:31.080Z,0
2023-03-11T19:26:47.923Z,0
2023-03-11T19:28:54.674Z,0
2023-03-11T19:29:57.750Z,0
2023-03-11T19:32:06.074Z,0
2023-03-11T19:34:12.348Z,0
2023-03-11T19:36:20.107Z,0
2023-03-11T19:37:23.191Z,0
2023-03-11T19:38:26.941Z,0
2023-03-11T19:39:30.040Z,0
2023-03-11T19:41:36.561Z,0
2023-03-11T19:42:39.973Z,0
2023-03-11T19:43:43.477Z,0
2023-03-11T19:44:47.395Z,0
2023-03-11T19:46:54.965Z,0
2023-03-11T19:49:02.039Z,0
2023-03-11T19:50:05.607Z,0
2023-03-11T19:52:12.842Z,0
2023-03-11T19:54:19.022Z,0
2023-03-11T19:56:24.712Z,0
2023-03-11T19:57:27.298Z,0
2023-03-11T19:59:36.192Z,0
2023-03-11T20:01:42.729Z,0
2023-03-11T20:03:49.849Z,0
2023-03-11T20:04:53.652Z,0
2023-03-11T20:07:01.088Z,0
2023-03-11T20:09:08.638Z,0
2023-03-11T20:11:14.700Z,0
2023-03-11T20:12:18.202Z,0
2023-03-11T20:14:24.572Z,0
2023-03-11T20:16:31.008Z,0
2023-03-11T20:18:38.954Z,0
2023-03-11T20:19:42.514Z,0
2023-03-11T20:20:46.117Z,0
2023-03-11T20:21:49.544Z,0
2023-03-11T20:23:57.536Z,0
2023-03-11T20:26:18.716Z,0
2023-03-11T20:27:22.315Z,0
2023-03-11T20:28:25.683Z,0
2023-03-11T20:29:29.707Z,0
2023-03-11T20:31:37.998Z,0
2023-03-11T20:32:42.490Z,0
2023-03-11T20:33:45.524Z,0
2023-03-11T20:34:49.113Z,0
2023-03-11T20:36:56.144Z,0
2023-03-11T20:39:04.632Z,0
2023-03-11T20:40:07.722Z,0
2023-03-11T20:42:14.085Z,0
2023-03-11T20:44:20.352Z,0
2023-03-11T20:46:28.763Z,0
2023-03-11T20:47:32.615Z,0
2023-03-11T20:49:38.869Z,0
2023-03-11T20:51:46.004Z,0
2023-03-11T20:53:53.805Z,0
2023-03-11T20:54:58.021Z,0
2023-03-11T20:57:05.701Z,0
2023-03-11T20:59:12.488Z,0
2023-03-11T21:01:20.405Z,0
2023-03-11T21:02:25.115Z,0
2023-03-11T21:03:29.756Z,0
2023-03-11T21:04:33.561Z,0
2023-03-11T21:06:40.624Z,0
2023-03-11T21:08:47.402Z,0
2023-03-11T21:09:51.292Z,0
2023-03-11T21:11:58.003Z,0
2023-03-11T21:14:05.203Z,0
2023-03-11T21:16:13.237Z,0
2023-03-11T21:17:17.438Z,0
2023-03-11T21:19:24.585Z,0
2023-03-11T21:21:31.899Z,0
2023-03-11T21:23:39.312Z,0
2023-03-11T21:24:43.033Z,0
2023-03-11T21:26:50.978Z,0
2023-03-11T21:28:58.280Z,0
2023-03-11T21:31:06.189Z,0
2023-03-11T21:32:10.062Z,0
2023-03-11T21:34:18.198Z,0
2023-03-11T21:36:24.591Z,0
2023-03-11T21:38:33.875Z,0
2023-03-11T21:39:37.746Z,0
2023-03-11T21:41:45.194Z,0
2023-03-11T21:43:53.011Z,0
2023-03-11T21:46:00.633Z,0
2023-03-11T21:47:04.666Z,0
2023-03-11T21:49:11.366Z,0
2023-03-11T21:51:17.137Z,0
2023-03-11T21:53:25.193Z,0
2023-03-11T21:54:30.111Z,0
2023-03-11T21:55:33.902Z,0
2023-03-11T21:56:37.859Z,0
2023-03-11T21:58:47.322Z,0
2023-03-11T21:59:51.041Z,0
2023-03-11T22:00:55.401Z,0
2023-03-11T22:01:58.944Z,0
2023-03-11T22:04:07.070Z,0
2023-03-11T22:06:14.237Z,0
2023-03-11T22:07:18.155Z,0
2023-03-11T22:09:23.580Z,0
2023-03-11T22:11:31.103Z,0
2023-03-11T22:13:40.000Z,0
2023-03-11T22:14:44.911Z,0
2023-03-11T22:16:53.121Z,0
2023-03-11T22:19:01.164Z,0
2023-03-11T22:21:12.942Z,0
2023-03-11T22:23:19.461Z,0
2023-03-11T22:24:22.569Z,0
2023-03-11T22:26:28.739Z,0
2023-03-11T22:28:34.403Z,0
2023-03-11T22:30:42.408Z,0
2023-03-11T22:31:45.841Z,0
2023-03-11T22:33:52.570Z,0
2023-03-11T22:35:59.547Z,0
2023-03-11T22:38:06.160Z,0
2023-03-11T22:39:10.172Z,0
2023-03-11T22:41:16.857Z,0
2023-03-11T22:43:23.720Z,0
2023-03-11T22:45:30.158Z,0
2023-03-11T22:46:34.300Z,0
2023-03-11T22:47:37.787Z,0
2023-03-11T22:48:41.174Z,0
2023-03-11T22:50:47.890Z,0
2023-03-11T22:51:50.744Z,0
2023-03-11T22:52:53.334Z,0
2023-03-11T22:53:56.526Z,0
2023-03-11T22:56:03.701Z,0
2023-03-11T22:57:07.446Z,0
2023-03-11T22:58:11.212Z,0
2023-03-11T22:59:14.981Z,0
2023-03-11T23:01:22.417Z,0
2023-03-11T23:03:31.222Z,0
2023-03-11T23:04:34.753Z,0
2023-03-11T23:06:41.626Z,0
2023-03-11T23:08:48.141Z,0
2023-03-11T23:10:54.439Z,0
2023-03-11T23:11:57.816Z,0
2023-03-11T23:14:05.125Z,0
2023-03-11T23:16:11.718Z,0
2023-03-11T23:18:19.522Z,0
2023-03-11T23:19:23.260Z,0
2023-03-11T23:21:29.615Z,0
2023-03-11T23:23:35.930Z,0
2023-03-11T23:25:42.124Z,0
2023-03-11T23:26:45.255Z,0
2023-03-11T23:28:51.933Z,0
2023-03-11T23:30:57.854Z,0
2023-03-11T23:33:04.591Z,0
2023-03-11T23:34:08.701Z,0
2023-03-11T23:36:14.982Z,0
2023-03-11T23:38:21.305Z,0
2023-03-11T23:40:27.937Z,0
2023-03-11T23:41:31.465Z,0
2023-03-11T23:43:38.732Z,0
2023-03-11T23:45:45.576Z,0
2023-03-11T23:47:51.852Z,0
2023-03-11T23:48:55.760Z,0
2023-03-11T23:49:59.927Z,0
2023-03-11T23:51:03.026Z,0